Time;durP1;ratioP1;P1;durP2;ratioP2;P2;SDS_P1;SDS_P2;PMS_P1;PMS_P2;Temp;Humidity;BMP_temperature;BMP_pressure;BME280_temperature;BME280_humidity;BME280_pressure;Samples;Min_cycle;Max_cycle;Signal;HPM_P1;HPM_P2
2022/08/24 01:02:34;;;;;;;4.53;4.20;;;;;;;;;;4971988;28;20464;-94
2022/08/24 01:05:09;;;;;;;4.38;4.18;;;;;;;;;;4948139;28;20483;-95
2022/08/24 01:07:38;;;;;;;4.50;4.30;;;;;;;;;;4974161;28;20412;-94
2022/08/24 01:10:16;;;;;;;4.60;4.40;;;;;;;;;;4970688;28;20415;-93
2022/08/24 01:12:47;;;;;;;5.20;4.90;;;;;;;;;;4990073;28;21109;-95
2022/08/24 01:15:21;;;;;;;5.40;5.00;;;;;;;;;;4985232;28;20409;-95
2022/08/24 01:20:54;;;;;;;5.97;5.38;;;;;;;;;;4958922;28;20393;-95
2022/08/24 01:23:23;;;;;;;5.43;5.13;;;;;;;;;;4943770;29;20407;-95
2022/08/24 01:25:55;;;;;;;5.43;5.15;;;;;;;;;;4977623;28;20406;-94
2022/08/24 01:31:10;;;;;;;6.22;5.72;;;;;;;;;;4998867;28;20390;-94
2022/08/24 01:33:38;;;;;;;5.70;5.40;;;;;;;;;;4979321;28;20434;-94
2022/08/24 01:36:10;;;;;;;4.97;4.60;;;;;;;;;;4997457;28;20454;-94
2022/08/24 01:38:37;;;;;;;4.85;4.55;;;;;;;;;;5004058;28;20398;-95
2022/08/24 01:41:06;;;;;;;5.22;4.93;;;;;;;;;;4976421;28;20487;-94
2022/08/24 01:43:40;;;;;;;5.05;4.65;;;;;;;;;;4980235;28;20429;-94
2022/08/24 01:46:13;;;;;;;4.80;4.50;;;;;;;;;;4981844;28;20406;-94
2022/08/24 01:48:50;;;;;;;5.10;4.90;;;;;;;;;;4968256;28;20500;-94
2022/08/24 01:51:16;;;;;;;4.97;4.50;;;;;;;;;;4943214;29;20414;-94
2022/08/24 01:53:42;;;;;;;4.60;4.30;;;;;;;;;;4959611;28;20846;-94
2022/08/24 01:56:10;;;;;;;5.10;4.70;;;;;;;;;;4976803;28;20422;-94
2022/08/24 01:58:42;;;;;;;5.17;4.80;;;;;;;;;;4956805;28;20404;-93
2022/08/24 02:01:10;;;;;;;4.95;4.65;;;;;;;;;;4947855;28;20922;-94
2022/08/24 02:04:02;;;;;;;4.93;4.82;;;;;;;;;;4955861;28;20427;-94
2022/08/24 02:06:32;;;;;;;5.40;5.10;;;;;;;;;;4937090;29;20438;-95
2022/08/24 02:08:58;;;;;;;5.38;5.18;;;;;;;;;;4956339;28;20471;-95
2022/08/24 04:42:45;;;;;;;5.60;5.30;;;;;;;;;;4977735;28;20397;-91
2022/08/24 04:56:03;;;;;;;6.25;5.90;;;;;;;;;;5176275;23;20505;-93
2022/08/24 05:02:03;;;;;;;6.15;5.85;;;;;;;;;;4970705;29;20421;-94
2022/08/24 05:15:39;;;;;;;7.32;6.82;;;;;;;;;;4982576;23;20424;-90
2022/08/24 05:23:39;;;;;;;6.75;6.35;;;;;;;;;;5148599;23;20582;-91
2022/08/24 05:29:15;;;;;;;6.70;6.20;;;;;;;;;;5267842;23;20435;-93
2022/08/24 05:52:32;;;;;;;7.40;6.90;;;;;;;;;;5023941;23;20958;-92
2022/08/24 05:54:59;;;;;;;7.30;6.60;;;;;;;;;;4978590;28;20431;-87
2022/08/24 05:57:43;;;;;;;;;;;;;;;;;;;;;
2022/08/24 06:00:38;;;;;;;5.70;5.30;;;;;;;;;;4966790;28;20471;-92
2022/08/24 06:03:09;;;;;;;5.65;5.25;;;;;;;;;;4943961;28;20407;-91
2022/08/24 06:05:41;;;;;;;5.63;5.20;;;;;;;;;;4951067;29;20805;-91
2022/08/24 06:08:10;;;;;;;6.13;5.63;;;;;;;;;;4960500;28;20400;-88
2022/08/24 06:10:46;;;;;;;5.53;5.22;;;;;;;;;;4957186;28;20425;-91
2022/08/24 06:13:15;;;;;;;5.32;5.03;;;;;;;;;;4959034;28;20405;-89
2022/08/24 06:15:44;;;;;;;5.70;5.20;;;;;;;;;;4954998;28;21260;-90
2022/08/24 06:57:36;;;;;;;4.77;4.53;;;;;;;;;;5414092;23;20576;-93
2022/08/24 07:11:57;;;;;;;3.87;3.70;;;;;;;;;;5306089;23;20548;-92
2022/08/24 07:25:45;;;;;;;4.63;4.33;;;;;;;;;;4673936;23;20844;-90
2022/08/24 07:31:37;;;;;;;6.80;6.23;;;;;;;;;;4265377;23;20517;-94
2022/08/24 08:11:06;;;;;;;;;;;;;;;;;;;;;
2022/08/24 08:13:53;;;;;;;7.33;4.10;;;;;;;;;;4963851;28;20433;-95
2022/08/24 08:16:28;;;;;;;5.60;4.13;;;;;;;;;;4959119;28;20465;-94
2022/08/24 08:18:54;;;;;;;5.80;5.40;;;;;;;;;;4930773;29;20439;-92
2022/08/24 08:24:19;;;;;;;3.67;3.43;;;;;;;;;;4968262;29;20440;-94
2022/08/24 08:26:52;;;;;;;3.93;3.80;;;;;;;;;;4947330;29;20439;-95
2022/08/24 08:29:26;;;;;;;3.80;3.60;;;;;;;;;;4934327;29;20455;-92
2022/08/24 08:32:27;;;;;;;3.97;3.77;;;;;;;;;;4959687;29;20469;-90
2022/08/24 08:34:54;;;;;;;3.83;3.60;;;;;;;;;;4939642;29;20438;-91
2022/08/24 08:37:26;;;;;;;4.83;4.50;;;;;;;;;;4951883;29;20458;-94
2022/08/24 08:50:39;;;;;;;2.83;2.80;;;;;;;;;;4986595;23;21888;-92
2022/08/24 08:56:15;;;;;;;4.37;3.80;;;;;;;;;;5480115;23;20470;-92
2022/08/24 09:05:09;;;;;;;6.60;3.63;;;;;;;;;;5100453;23;20558;-94
2022/08/24 09:15:50;;;;;;;2.60;2.60;;;;;;;;;;3896181;23;20566;-90
2022/08/24 09:18:25;;;;;;;3.67;3.47;;;;;;;;;;5114461;23;20491;-89
2022/08/24 09:28:47;;;;;;;3.30;3.20;;;;;;;;;;5034381;23;20512;-94
2022/08/24 09:34:36;;;;;;;3.10;2.80;;;;;;;;;;4995402;28;20432;-94
2022/08/24 09:39:52;;;;;;;3.67;3.40;;;;;;;;;;5238623;23;20520;-92
2022/08/24 09:42:21;;;;;;;3.83;3.63;;;;;;;;;;5004525;28;20423;-94
2022/08/24 09:45:04;;;;;;;6.53;3.40;;;;;;;;;;4973002;28;20430;-91
2022/08/24 09:47:50;;;;;;;;;;;;;;;;;;;;;
2022/08/24 09:50:43;;;;;;;3.87;2.67;;;;;;;;;;5011528;28;20448;-92
2022/08/24 09:53:13;;;;;;;2.60;2.50;;;;;;;;;;4961843;28;20445;-94
2022/08/24 09:55:54;;;;;;;3.47;3.27;;;;;;;;;;4971101;28;20465;-92
2022/08/24 09:58:39;;;;;;;4.90;3.53;;;;;;;;;;4973812;28;20452;-93
2022/08/24 10:01:27;;;;;;;2.80;2.70;;;;;;;;;;4976545;28;20982;-91
2022/08/24 10:12:31;;;;;;;2.87;2.70;;;;;;;;;;5872285;23;20461;-93
2022/08/24 10:18:02;;;;;;;3.40;3.20;;;;;;;;;;4899109;23;20455;31
2022/08/24 10:21:00;;;;;;;3.30;3.00;;;;;;;;;;5144096;23;20496;-96
2022/08/24 10:23:48;;;;;;;3.50;3.30;;;;;;;;;;5343172;23;21048;-90
2022/08/24 10:26:52;;;;;;;3.00;2.70;;;;;;;;;;5331125;23;20488;-91
2022/08/24 10:29:40;;;;;;;2.73;2.60;;;;;;;;;;4968745;28;20797;-90
2022/08/24 10:32:40;;;;;;;3.20;3.00;;;;;;;;;;4957317;28;20449;-95
2022/08/24 11:16:08;;;;;;;2.73;2.73;;;;;;;;;;4971696;23;20497;-89
2022/08/24 11:37:00;;;;;;;3.00;2.80;;;;;;;;;;5264731;23;20622;-91
2022/08/24 11:39:41;;;;;;;4.27;2.53;;;;;;;;;;4989159;28;20407;-91
2022/08/24 11:47:46;;;;;;;16.43;3.63;;;;;;;;;;5545384;23;20464;-91
2022/08/24 12:05:00;;;;;;;3.17;2.97;;;;;;;;;;3846624;23;20485;-93
2022/08/24 12:16:06;;;;;;;3.00;2.90;;;;;;;;;;4962566;28;20477;-89
2022/08/24 12:18:53;;;;;;;3.10;2.90;;;;;;;;;;4955844;29;20450;-91
2022/08/24 12:21:21;;;;;;;2.63;2.53;;;;;;;;;;4958652;28;20465;-87
2022/08/24 12:35:17;;;;;;;3.50;3.40;;;;;;;;;;4276602;23;20484;-92
2022/08/24 12:45:26;;;;;;;3.47;3.27;;;;;;;;;;5162662;23;20579;-96
2022/08/24 12:48:17;;;;;;;3.00;2.90;;;;;;;;;;5078955;23;1429008;-95
2022/08/24 12:56:27;;;;;;;2.90;2.90;;;;;;;;;;5037794;23;20502;-89
2022/08/24 13:02:05;;;;;;;3.40;3.30;;;;;;;;;;4959043;28;20803;-91
2022/08/24 13:04:33;;;;;;;3.20;3.10;;;;;;;;;;4953193;28;20437;-93
2022/08/24 13:07:04;;;;;;;3.40;3.40;;;;;;;;;;4627221;28;9999810;-91
2022/08/24 13:09:34;;;;;;;3.43;3.23;;;;;;;;;;4974620;28;20174;-90
2022/08/24 13:39:37;;;;;;;2.77;2.77;;;;;;;;;;5329696;23;20488;-90
2022/08/24 13:42:03;;;;;;;3.20;3.00;;;;;;;;;;4960637;28;20457;-90
2022/08/24 13:45:06;;;;;;;3.10;2.90;;;;;;;;;;4953096;28;20493;-90
2022/08/24 13:47:47;;;;;;;3.73;3.27;;;;;;;;;;4938142;28;20458;-90
2022/08/24 13:50:33;;;;;;;3.10;3.00;;;;;;;;;;4941158;29;20438;-88
2022/08/24 13:53:11;;;;;;;3.17;2.97;;;;;;;;;;4940932;29;20450;-90
2022/08/24 13:55:53;;;;;;;3.03;2.83;;;;;;;;;;4932934;29;20427;-88
2022/08/24 13:58:19;;;;;;;3.20;3.13;;;;;;;;;;4947703;29;20462;-88
2022/08/24 14:00:48;;;;;;;3.20;3.10;;;;;;;;;;4939612;29;20473;-89
2022/08/24 14:03:23;;;;;;;3.00;2.90;;;;;;;;;;4952584;29;20493;-88
2022/08/24 14:09:09;;;;;;;2.77;2.77;;;;;;;;;;1300281;26;21255;-92
2022/08/24 14:11:59;;;;;;;3.40;3.30;;;;;;;;;;4897162;29;20881;-90
2022/08/24 14:14:50;;;;;;;3.23;2.70;;;;;;;;;;4896675;29;20447;-88
2022/08/24 14:17:54;;;;;;;3.90;3.60;;;;;;;;;;4930172;29;20483;-91
2022/08/24 14:20:45;;;;;;;3.83;3.73;;;;;;;;;;4927941;29;20843;-89
2022/08/24 14:23:17;;;;;;;3.87;3.77;;;;;;;;;;4949708;29;20450;-88
2022/08/24 14:25:44;;;;;;;3.70;3.50;;;;;;;;;;4933449;29;20924;-93
2022/08/24 14:28:32;;;;;;;4.47;4.27;;;;;;;;;;4942389;29;20442;-91
2022/08/24 14:31:18;;;;;;;5.57;3.33;;;;;;;;;;4948764;29;20422;-90
2022/08/24 14:33:51;;;;;;;3.57;3.37;;;;;;;;;;4943649;29;20447;-92
2022/08/24 14:36:21;;;;;;;3.70;3.60;;;;;;;;;;4940400;29;20463;-93
2022/08/24 14:39:08;;;;;;;3.93;3.80;;;;;;;;;;4960830;29;20438;-93
2022/08/24 14:41:37;;;;;;;4.73;4.33;;;;;;;;;;4940484;29;20427;-94
2022/08/24 14:44:33;;;;;;;4.13;3.93;;;;;;;;;;4928900;29;20427;-92
2022/08/24 14:47:21;;;;;;;4.80;4.60;;;;;;;;;;4903638;29;20446;-92
2022/08/24 14:50:05;;;;;;;3.73;3.53;;;;;;;;;;4949241;29;20439;-93
2022/08/24 14:52:54;;;;;;;4.20;4.00;;;;;;;;;;4920568;29;20443;-92
2022/08/24 15:09:50;;;;;;;4.00;3.80;;;;;;;;;;4380479;23;20524;31
2022/08/24 15:18:09;;;;;;;5.03;4.00;;;;;;;;;;5100592;23;21052;-92
2022/08/24 15:23:33;;;;;;;4.07;3.77;;;;;;;;;;2760605;23;20518;-93
2022/08/24 15:28:58;;;;;;;4.60;4.50;;;;;;;;;;2351503;23;20486;-95
2022/08/24 15:31:28;;;;;;;4.90;4.50;;;;;;;;;;4974422;28;20902;-91
2022/08/24 15:34:24;;;;;;;4.43;4.27;;;;;;;;;;4949185;28;20426;-91
2022/08/24 15:37:00;;;;;;;3.87;3.77;;;;;;;;;;4935610;23;20516;-93
2022/08/24 15:39:30;;;;;;;4.73;4.50;;;;;;;;;;4962745;29;20557;-94
2022/08/24 15:42:21;;;;;;;3.87;3.87;;;;;;;;;;5004683;23;20513;-91
2022/08/24 15:45:28;;;;;;;5.20;4.80;;;;;;;;;;4955579;29;20453;-93
2022/08/24 15:48:25;;;;;;;;;;;;;;;;;;;;;
2022/08/24 15:50:54;;;;;;;4.30;4.10;;;;;;;;;;4984057;28;20502;-91
2022/08/24 15:53:39;;;;;;;3.70;3.60;;;;;;;;;;4988066;28;20448;-92
2022/08/24 15:56:24;;;;;;;4.13;4.03;;;;;;;;;;5119948;23;20454;-93
2022/08/24 15:59:15;;;;;;;4.17;3.97;;;;;;;;;;4969974;28;20481;-94
2022/08/24 16:05:02;;;;;;;4.13;3.90;;;;;;;;;;4969268;28;20843;-93
2022/08/24 16:07:53;;;;;;;4.97;4.60;;;;;;;;;;4977610;28;20436;-93
2022/08/24 16:10:38;;;;;;;5.37;5.10;;;;;;;;;;4956320;29;20433;-93
2022/08/24 16:13:25;;;;;;;4.83;4.10;;;;;;;;;;4952053;29;20556;-92
2022/08/24 16:15:53;;;;;;;4.20;4.00;;;;;;;;;;4969048;28;20442;-91
2022/08/24 17:06:14;;;;;;;5.27;4.50;;;;;;;;;;5581485;22;15057661;-93
2022/08/24 17:09:15;;;;;;;4.23;4.13;;;;;;;;;;6217362;23;20201;-94
2022/08/24 17:11:45;;;;;;;4.53;4.43;;;;;;;;;;6215287;23;20421;-93
2022/08/24 17:14:12;;;;;;;5.93;4.60;;;;;;;;;;6239346;23;20378;-90
2022/08/24 17:16:57;;;;;;;5.23;4.80;;;;;;;;;;6215336;23;20390;-93
2022/08/24 17:19:23;;;;;;;5.33;4.97;;;;;;;;;;6213101;23;20406;-93
2022/08/24 17:21:50;;;;;;;4.60;4.40;;;;;;;;;;6219247;23;20402;-92
2022/08/24 17:24:37;;;;;;;5.13;5.03;;;;;;;;;;6217831;23;20416;-93
2022/08/24 17:27:04;;;;;;;4.77;4.47;;;;;;;;;;6219491;23;20374;-93
2022/08/24 17:29:56;;;;;;;4.60;4.40;;;;;;;;;;6205102;23;20383;-93
2022/08/24 17:32:31;;;;;;;5.00;4.60;;;;;;;;;;6206720;23;20394;-94
2022/08/24 17:35:01;;;;;;;4.90;4.70;;;;;;;;;;6202864;23;20390;-94
2022/08/24 17:37:34;;;;;;;5.03;4.63;;;;;;;;;;6201296;23;20382;-93
2022/08/24 17:40:03;;;;;;;4.90;4.70;;;;;;;;;;6202927;23;20458;-91
2022/08/24 17:42:34;;;;;;;4.83;4.67;;;;;;;;;;6203512;23;20378;-92
2022/08/24 17:45:03;;;;;;;4.93;4.63;;;;;;;;;;6203545;23;20382;-92
2022/08/24 17:47:29;;;;;;;4.43;4.33;;;;;;;;;;6208209;23;20484;-91
2022/08/24 17:49:56;;;;;;;5.40;5.20;;;;;;;;;;6237873;23;20405;-94
2022/08/24 17:52:24;;;;;;;6.60;6.30;;;;;;;;;;6238261;23;20405;-93
2022/08/24 17:54:50;;;;;;;4.90;4.77;;;;;;;;;;6236915;23;20394;-91
2022/08/24 17:57:30;;;;;;;5.93;5.53;;;;;;;;;;6234147;23;20417;-93
2022/08/24 18:00:09;;;;;;;;;;;;;;;;;;;;;
2022/08/24 18:02:46;;;;;;;4.90;4.60;;;;;;;;;;6253894;22;20408;-94
2022/08/24 18:05:14;;;;;;;5.93;5.03;;;;;;;;;;6235635;23;20426;-91
2022/08/24 18:08:01;;;;;;;5.90;5.60;;;;;;;;;;6198056;23;20465;-94
2022/08/24 18:10:34;;;;;;;6.00;5.60;;;;;;;;;;6197014;23;20472;-90
2022/08/24 18:13:00;;;;;;;6.50;6.20;;;;;;;;;;6188553;23;20386;-89
2022/08/24 18:15:59;;;;;;;;;;;;;;;;;;;;;
2022/08/24 18:18:15;;;;;;;6.63;5.77;;;;;;;;;;6218731;23;20711;-91
2022/08/24 18:20:54;;;;;;;6.73;6.03;;;;;;;;;;6203863;23;20394;-90
2022/08/24 18:24:00;;;;;;;;;;;;;;;;;;;;;
2022/08/24 18:29:44;;;;;;;;;;;;;;;;;;;;;
2022/08/24 18:40:02;;;;;;;6.03;5.63;;;;;;;;;;6223606;22;20458;-88
2022/08/24 20:28:02;;;;;;;14.47;11.93;;;;;;;;;;6248424;23;20429;-91
2022/08/24 20:30:32;;;;;;;6.13;5.70;;;;;;;;;;6184034;23;20434;-91
2022/08/24 20:32:59;;;;;;;6.10;5.60;;;;;;;;;;6191322;23;20401;-91
2022/08/24 20:35:58;;;;;;;5.90;5.70;;;;;;;;;;6198953;23;20469;-92
2022/08/24 20:38:39;;;;;;;;;;;;;;;;;;;;;
